Spokane International Airport
KGEG : now visible

Airfield :











YOU CAN JOIN US ON...

 
LOGIN :

Register | Disclaimer

   EN    FR    IT 

 









Legend :    VFR   Marginal VFR   IFR   Intensive IFR   Very Intensive IFR
Visi :
Ceiling :
>= 8 km
>= 3000ft
5 to 8 km
1000 to 3000 ft
1500m to 5 km
500 to 1000 ft
800 to 1500m
200 to 500 ft
< 800m
< 200 ft
Symbols :   Thunderstorms  Fog  Heavy snow  Heavy precipitations  Wind > 20 kt






- Airport Elevation : 2376 ft
- IATA code : GEG


KGEG - Spokane International

CURRENT METAR :
  • 060253Z 03004KT 10SM FEW039 BKN065 BKN100 07/02 A2962 RMK AO2 SLP043 T00670017 53002

EXPIRED METARs :
  • 060153Z 04007KT 10SM FEW025 FEW070 SCT110 OVC220 08/02 A2962 RMK AO2 SLP040 T00780022
  • 060053Z 06007KT 10SM FEW038 FEW070 SCT130 OVC220 08/02 A2961 RMK AO2 SLP039 T00780022

TAF KGEG
Valid from the 06 at 00:00 until the 07 at 00:00 UTC


052337Z 0600/0624 05006KT P6SM SCT015 BKN040 BKN070
TEMPO 0600/0601 BKN015 BKN040 BKN070
FM060400 04005KT P6SM VCSH SCT040 OVC070
FM060900 VRB03KT P6SM OVC040
FM061200 22004KT P6SM OVC015
FM062100 23010KT P6SM BKN050



MET'MAP, your aeronautical weather chart ! - Copyright ORBIFLY December 2007 - Disclaimer

ORBIFLY MET'MAP TEAM :

Programming & Development : Alexandra Zaïnal
Concept & original design : Baudouin d'Aumeries
Assistance for programming : Marc-Olivier Méhu
Technical & hardware support : Manuel Goepfert

Contact : metmap@orbifly.com




SOURCES & CREDITS :

   NOAA       Earth
Advisory